Time;durP1;ratioP1;P1;durP2;ratioP2;P2;SDS_P1;SDS_P2;PMS_P1;PMS_P2;Temp;Humidity;BMP_temperature;BMP_pressure;BME280_temperature;BME280_humidity;BME280_pressure;Samples;Min_cycle;Max_cycle;Signal;HPM_P1;HPM_P2
2023/04/15 00:02:17;;;;;;;5.85;2.72;;;;;;;4.05;83.66;98436.53;5058401;28;20055;-59
2023/04/15 00:04:44;;;;;;;9.15;3.33;;;;;;;4.09;84.48;98433.22;5067329;28;20056;-59
2023/04/15 00:07:13;;;;;;;6.28;3.13;;;;;;;3.94;86.37;98435.38;5051713;28;20485;-59
2023/04/15 00:09:41;;;;;;;7.82;3.25;;;;;;;3.76;84.97;98428.22;5052687;28;20407;-59
2023/04/15 00:12:08;;;;;;;8.70;4.18;;;;;;;3.51;85.53;98430.88;5058352;28;20052;-60
2023/04/15 00:14:35;;;;;;;11.90;4.93;;;;;;;3.29;87.16;98437.56;5048519;28;20037;-60
2023/04/15 00:17:03;;;;;;;10.05;5.13;;;;;;;3.40;89.47;98429.75;5055749;28;20136;-59
2023/04/15 00:19:30;;;;;;;10.35;5.38;;;;;;;3.45;88.27;98437.06;5050850;28;20052;-60
2023/04/15 00:21:57;;;;;;;11.63;5.40;;;;;;;3.35;88.80;98434.06;5052034;28;20436;-59
2023/04/15 00:24:26;;;;;;;11.63;4.00;;;;;;;3.23;88.12;98424.16;5049885;28;20080;-59
2023/04/15 00:26:53;;;;;;;11.45;3.55;;;;;;;3.24;89.74;98425.81;5050051;28;20095;-59
2023/04/15 00:29:20;;;;;;;9.63;3.30;;;;;;;3.61;93.51;98425.91;5046769;28;20049;-59
2023/04/15 00:31:48;;;;;;;7.43;3.00;;;;;;;3.72;89.29;98426.22;5051398;28;20032;-59
2023/04/15 00:34:15;;;;;;;10.10;3.40;;;;;;;3.41;87.28;98423.41;5052605;28;20102;-59
2023/04/15 00:36:43;;;;;;;7.13;3.42;;;;;;;3.40;89.50;98424.44;5048851;28;20443;-59
2023/04/15 00:39:10;;;;;;;9.57;3.28;;;;;;;2.84;89.67;98435.00;5059154;28;20045;-59
2023/04/15 00:41:39;;;;;;;8.23;3.30;;;;;;;2.54;97.50;98431.03;5049179;28;20079;-59
2023/04/15 00:44:06;;;;;;;6.38;3.08;;;;;;;2.16;94.35;98433.63;5055033;28;20570;-60
2023/04/15 00:46:33;;;;;;;8.00;3.85;;;;;;;2.51;100.00;98430.66;5050469;28;20510;-59
2023/04/15 00:49:00;;;;;;;6.85;3.63;;;;;;;2.34;94.21;98441.69;5060832;28;20119;-59
2023/04/15 00:51:28;;;;;;;8.32;3.80;;;;;;;2.75;94.86;98432.59;5052979;28;20136;-59
2023/04/15 00:53:55;;;;;;;7.28;3.35;;;;;;;2.77;92.41;98430.56;5054908;28;20044;-61
2023/04/15 00:56:23;;;;;;;12.35;3.20;;;;;;;2.95;91.54;98434.34;5060400;28;20052;-61
2023/04/15 00:58:52;;;;;;;15.70;3.65;;;;;;;3.46;89.20;98428.06;5051773;28;20952;-61
2023/04/15 01:01:20;;;;;;;10.43;3.13;;;;;;;3.50;91.32;98426.63;5056298;28;20053;-61
2023/04/15 01:03:47;;;;;;;8.68;3.15;;;;;;;3.28;87.74;98428.81;5053316;28;20124;-61
2023/04/15 01:06:14;;;;;;;6.95;3.60;;;;;;;2.85;88.92;98432.16;5050897;28;20127;-60
2023/04/15 01:08:42;;;;;;;7.55;3.83;;;;;;;2.48;90.62;98431.91;5056408;28;20123;-61
2023/04/15 01:11:09;;;;;;;6.28;3.50;;;;;;;2.44;93.79;98427.22;5056903;28;20094;-59
2023/04/15 01:13:36;;;;;;;7.30;3.50;;;;;;;2.63;98.54;98423.69;5052990;28;20535;-60
2023/04/15 01:16:06;;;;;;;6.28;3.33;;;;;;;2.69;98.99;98422.03;5058555;28;20109;-60
2023/04/15 01:18:33;;;;;;;9.10;3.43;;;;;;;2.42;95.16;98421.34;5058014;28;20047;-61
2023/04/15 01:21:00;;;;;;;7.55;3.88;;;;;;;2.46;95.86;98422.56;5054447;28;20416;-60
2023/04/15 01:23:27;;;;;;;9.63;3.33;;;;;;;2.25;94.46;98427.09;5054149;28;20433;-60
2023/04/15 01:25:56;;;;;;;8.32;3.60;;;;;;;2.12;94.15;98427.97;5044952;28;20492;-61
2023/04/15 01:28:23;;;;;;;7.50;3.58;;;;;;;2.14;95.51;98435.66;5059992;28;20460;-61
2023/04/15 01:30:50;;;;;;;6.03;3.50;;;;;;;2.22;97.45;98431.97;5055296;28;20048;-59
2023/04/15 01:33:17;;;;;;;9.20;3.50;;;;;;;2.09;96.83;98438.13;5063743;28;20049;-59
2023/04/15 01:36:06;;;;;;;6.25;3.25;;;;;;;2.21;98.51;98431.16;5063568;28;20051;-60
2023/04/15 01:38:33;;;;;;;6.25;3.13;;;;;;;1.97;94.91;98429.19;5056923;28;20079;-59
2023/04/15 01:41:03;;;;;;;9.05;3.40;;;;;;;1.88;96.32;98437.34;5066664;28;20328;-60
2023/04/15 01:43:31;;;;;;;11.35;3.70;;;;;;;1.99;96.37;98433.25;5053232;28;20053;-61
2023/04/15 01:45:59;;;;;;;11.65;3.35;;;;;;;2.03;98.20;98428.38;5055860;28;20033;-59
2023/04/15 01:48:27;;;;;;;7.22;3.03;;;;;;;1.99;96.84;98432.44;5050273;28;20058;-60
2023/04/15 01:50:57;;;;;;;8.15;3.70;;;;;;;1.77;96.56;98430.03;5056375;28;20315;-60
2023/04/15 01:53:25;;;;;;;8.98;3.35;;;;;;;1.64;96.77;98435.34;5061672;28;20040;-60
2023/04/15 01:55:53;;;;;;;7.97;3.47;;;;;;;1.55;96.46;98431.25;5049925;28;20067;-60
2023/04/15 01:58:23;;;;;;;10.32;3.30;;;;;;;1.86;98.50;98439.38;5071762;28;20059;-60
2023/04/15 02:00:52;;;;;;;7.35;3.30;;;;;;;1.76;95.70;98427.59;5056285;28;20106;-59
2023/04/15 02:03:21;;;;;;;7.00;3.42;;;;;;;1.92;97.26;98432.44;5052200;28;20047;-60
2023/04/15 02:05:49;;;;;;;16.40;3.83;;;;;;;1.98;96.39;98428.19;5051702;28;20041;-60
2023/04/15 02:08:18;;;;;;;5.50;3.30;;;;;;;2.32;100.00;98437.63;5060876;28;20114;-61
2023/04/15 02:10:46;;;;;;;14.00;3.78;;;;;;;1.93;95.96;98439.38;5054180;28;20041;-59
2023/04/15 02:13:15;;;;;;;19.98;8.65;;;;;;;1.88;97.57;98429.41;5059312;28;20057;-61
2023/04/15 02:15:48;;;;;;;10.68;4.82;;;;;;;1.86;96.74;98428.81;5056231;28;20051;-61
2023/04/15 02:18:16;;;;;;;15.63;4.18;;;;;;;1.65;96.80;98429.84;5055923;28;20041;-60
2023/04/15 02:20:45;;;;;;;9.88;3.90;;;;;;;1.50;96.68;98430.06;5055336;28;20054;-60
2023/04/15 02:23:14;;;;;;;8.50;3.67;;;;;;;1.63;98.35;98428.44;5056171;28;20052;-59
2023/04/15 02:25:46;;;;;;;7.85;3.53;;;;;;;1.61;98.64;98435.75;5059134;28;20045;-60
2023/04/15 02:28:14;;;;;;;8.02;3.50;;;;;;;1.48;98.18;98432.09;5052164;28;20045;-61
2023/04/15 02:30:49;;;;;;;6.55;3.90;;;;;;;1.57;97.95;98439.81;5052369;28;20498;-60
2023/04/15 02:33:17;;;;;;;7.93;3.75;;;;;;;1.54;97.07;98437.56;5061483;28;20052;-60
2023/04/15 02:35:46;;;;;;;6.47;3.50;;;;;;;1.57;100.00;98450.38;5056619;28;20041;-61
2023/04/15 02:38:16;;;;;;;7.18;3.60;;;;;;;1.91;100.00;98439.56;5071738;28;20063;-60
2023/04/15 02:40:45;;;;;;;9.55;4.13;;;;;;;1.28;100.00;98444.47;5056637;28;20037;-61
2023/04/15 02:43:14;;;;;;;10.43;3.63;;;;;;;1.49;100.00;98446.09;5055251;28;20067;-60
2023/04/15 02:45:43;;;;;;;10.90;4.05;;;;;;;1.69;100.00;98448.75;5071855;28;20043;-60
2023/04/15 02:48:13;;;;;;;6.40;3.50;;;;;;;1.68;100.00;98447.13;5055807;28;20047;-61
2023/04/15 02:50:41;;;;;;;7.43;3.78;;;;;;;1.60;100.00;98447.31;5052043;28;20233;-60
2023/04/15 02:53:13;;;;;;;10.55;4.20;;;;;;;1.46;99.56;98439.41;5049936;28;20418;-61
2023/04/15 02:55:42;;;;;;;11.43;3.80;;;;;;;1.29;98.83;98446.09;5055158;28;20219;-61
2023/04/15 02:58:10;;;;;;;9.63;4.28;;;;;;;1.34;100.00;98445.50;5072359;28;20044;-61
2023/04/15 03:00:39;;;;;;;7.47;3.75;;;;;;;1.65;100.00;98450.19;5053317;28;20052;-61
2023/04/15 03:03:07;;;;;;;11.23;4.32;;;;;;;1.68;100.00;98447.13;5060294;28;20039;-61
2023/04/15 03:05:38;;;;;;;9.02;3.67;;;;;;;1.56;100.00;98446.13;5048088;28;20059;-61
2023/04/15 03:08:06;;;;;;;;;;;;;;;1.68;100.00;98447.13;5051652;28;20075;-60
2023/04/15 03:10:35;;;;;;;7.88;3.90;;;;;;;1.58;98.13;98449.38;5049889;28;20251;-60
2023/04/15 03:13:03;;;;;;;8.32;3.38;;;;;;;1.56;98.45;98451.41;5051777;28;20047;-60
2023/04/15 03:15:33;;;;;;;14.23;4.13;;;;;;;1.41;98.43;98447.13;5052170;28;20049;-61
2023/04/15 03:18:02;;;;;;;14.65;3.83;;;;;;;1.38;99.44;98447.53;5050888;28;20048;-61
2023/04/15 03:20:30;;;;;;;9.63;3.75;;;;;;;1.45;100.00;98451.00;5062747;28;20045;-60
2023/04/15 03:23:00;;;;;;;7.30;4.10;;;;;;;1.60;100.00;98458.72;5055922;28;20047;-61
2023/04/15 03:25:29;;;;;;;;;;;;;;;1.43;100.00;98454.84;5060197;28;20055;-61
2023/04/15 03:27:57;;;;;;;7.50;3.90;;;;;;;1.30;100.00;98460.94;5054833;28;20584;-61
2023/04/15 03:30:26;;;;;;;11.48;4.10;;;;;;;1.21;100.00;98451.56;5054662;28;20067;-60
2023/04/15 03:32:54;;;;;;;9.40;3.90;;;;;;;1.39;100.00;98454.41;5057789;28;20399;-60
2023/04/15 03:35:23;;;;;;;7.85;3.78;;;;;;;1.79;100.00;98451.78;5060371;28;20044;-61
2023/04/15 03:37:51;;;;;;;8.88;3.78;;;;;;;1.69;99.95;98457.47;5060945;28;20048;-61
2023/04/15 03:40:21;;;;;;;7.78;4.00;;;;;;;1.71;98.57;98450.16;5053163;28;20048;-61
2023/04/15 03:42:50;;;;;;;12.57;4.93;;;;;;;1.56;98.36;98454.03;5057262;28;20040;-61
2023/04/15 03:45:18;;;;;;;7.57;3.90;;;;;;;1.46;99.84;98457.88;5067221;28;20048;-61
2023/04/15 03:47:46;;;;;;;7.18;3.40;;;;;;;1.26;99.09;98457.06;5052184;28;20066;-60
2023/04/15 03:50:15;;;;;;;10.48;3.70;;;;;;;1.09;98.78;98467.16;5056790;28;20049;-60
2023/04/15 03:52:44;;;;;;;7.53;3.60;;;;;;;0.94;99.57;98462.06;5056280;28;20048;-60
2023/04/15 03:55:13;;;;;;;8.25;3.97;;;;;;;0.81;99.91;98464.66;5051111;28;20051;-61
2023/04/15 03:57:43;;;;;;;14.00;3.70;;;;;;;0.66;100.00;98461.38;5057482;28;20410;-59
2023/04/15 04:00:11;;;;;;;10.15;4.20;;;;;;;0.64;100.00;98462.38;5054027;28;20045;-60
2023/04/15 04:02:40;;;;;;;8.57;4.28;;;;;;;0.75;100.00;98454.91;5056385;28;20052;-60
2023/04/15 04:05:09;;;;;;;10.18;3.83;;;;;;;0.58;100.00;98462.34;5065961;28;20066;-60
2023/04/15 04:07:37;;;;;;;6.25;3.47;;;;;;;0.80;100.00;98465.66;5058673;28;20044;-60
2023/04/15 04:10:07;;;;;;;9.00;4.28;;;;;;;0.87;100.00;98466.50;5052487;28;20045;-59
2023/04/15 04:12:35;;;;;;;7.85;3.72;;;;;;;0.74;100.00;98467.28;5057352;28;20047;-62
2023/04/15 04:15:06;;;;;;;7.68;4.28;;;;;;;0.60;100.00;98466.44;5055122;28;20051;-60
2023/04/15 04:17:35;;;;;;;12.93;4.30;;;;;;;0.95;100.00;98476.91;5054986;28;20051;-61
2023/04/15 04:20:04;;;;;;;6.22;4.15;;;;;;;1.39;100.00;98475.53;5060588;28;20499;-60
2023/04/15 04:22:36;;;;;;;9.40;4.13;;;;;;;1.39;100.00;98485.31;5061782;28;20278;-61
2023/04/15 04:25:07;;;;;;;10.15;3.88;;;;;;;0.91;100.00;98478.28;5055331;28;20399;-59
2023/04/15 04:27:35;;;;;;;7.25;3.67;;;;;;;1.22;100.00;98479.56;5061696;28;20047;-60
2023/04/15 04:30:07;;;;;;;9.35;3.97;;;;;;;1.25;100.00;98469.44;5060124;28;20051;-59
2023/04/15 04:32:35;;;;;;;10.40;4.07;;;;;;;1.34;100.00;98472.69;5061471;28;20049;-60
2023/04/15 04:35:04;;;;;;;9.00;3.92;;;;;;;1.30;100.00;98476.78;5059557;28;20040;-60
2023/04/15 04:37:32;;;;;;;8.25;4.50;;;;;;;1.26;100.00;98468.41;5058035;28;20476;-60
2023/04/15 04:40:00;;;;;;;9.52;4.28;;;;;;;1.08;100.00;98471.66;5056638;28;20047;-61
2023/04/15 04:42:31;;;;;;;6.75;4.00;;;;;;;1.12;100.00;98472.03;5056614;28;20355;-60
2023/04/15 04:45:00;;;;;;;7.13;4.05;;;;;;;0.98;100.00;98476.50;5057017;28;20041;-61
2023/04/15 04:47:30;;;;;;;11.45;3.78;;;;;;;1.28;100.00;98478.78;5060379;28;20479;-60
2023/04/15 04:49:58;;;;;;;6.28;3.47;;;;;;;1.10;100.00;98486.47;5052869;28;20473;-61
2023/04/15 04:52:26;;;;;;;12.70;4.03;;;;;;;0.83;100.00;98481.13;5060110;28;20033;-60
2023/04/15 04:54:55;;;;;;;9.30;4.07;;;;;;;0.75;100.00;98481.28;5059401;28;20045;-60
2023/04/15 04:57:23;;;;;;;10.90;4.15;;;;;;;1.01;100.00;98486.66;5059728;28;20056;-59
2023/04/15 04:59:51;;;;;;;7.07;3.63;;;;;;;1.07;100.00;98475.31;5057579;28;20051;-60
2023/04/15 05:02:20;;;;;;;7.80;4.25;;;;;;;1.12;100.00;98479.16;5057278;28;20051;-60
2023/04/15 05:04:53;;;;;;;8.02;4.80;;;;;;;1.39;100.00;98475.53;5055561;28;20037;-61
2023/04/15 05:07:21;;;;;;;11.13;3.97;;;;;;;1.45;98.05;98481.88;5055012;28;20234;-60
2023/04/15 05:09:49;;;;;;;6.50;3.63;;;;;;;1.71;99.87;98488.97;5056267;28;20040;-60
2023/04/15 05:12:18;;;;;;;8.35;3.58;;;;;;;1.72;95.65;98493.25;5049859;28;20403;-60
2023/04/15 05:14:46;;;;;;;6.97;3.90;;;;;;;1.80;94.55;98482.50;5056698;28;20470;-60
2023/04/15 05:17:15;;;;;;;5.80;3.85;;;;;;;2.06;91.94;98492.22;5056294;28;20045;-60
2023/04/15 05:19:43;;;;;;;5.82;3.50;;;;;;;2.32;93.02;98491.38;5051580;28;20052;-61
2023/04/15 05:22:13;;;;;;;8.52;3.97;;;;;;;3.40;90.14;98492.53;5058307;28;20037;-60
2023/04/15 05:24:42;;;;;;;7.53;3.70;;;;;;;4.89;84.44;98498.66;5060452;28;20037;-60
2023/04/15 05:27:11;;;;;;;5.80;3.42;;;;;;;7.56;71.91;98498.28;5053362;28;20066;-60
2023/04/15 05:29:39;;;;;;;9.48;3.75;;;;;;;7.86;63.52;98491.84;5055830;28;20052;-60
2023/04/15 05:32:08;;;;;;;9.75;3.63;;;;;;;9.66;57.17;98501.06;5053699;28;20052;-60
2023/04/15 05:34:36;;;;;;;8.00;3.45;;;;;;;9.48;57.05;98501.41;5056163;28;20048;-60
2023/04/15 05:37:04;;;;;;;9.70;3.63;;;;;;;9.59;56.64;98495.09;5054638;28;20404;-61
2023/04/15 05:39:34;;;;;;;7.45;3.60;;;;;;;11.64;51.09;98504.22;5062624;28;20483;-59
2023/04/15 05:42:04;;;;;;;10.40;3.90;;;;;;;11.50;50.06;98513.84;5052180;28;20041;-61
2023/04/15 05:44:33;;;;;;;10.90;3.90;;;;;;;11.99;50.27;98508.81;5065357;28;20048;-60
2023/04/15 05:47:02;;;;;;;8.63;3.53;;;;;;;11.30;50.35;98506.56;5057205;28;20071;-59
2023/04/15 05:49:30;;;;;;;9.45;4.20;;;;;;;11.80;50.81;98505.81;5059437;28;20075;-60
2023/04/15 05:51:59;;;;;;;8.25;3.92;;;;;;;12.82;48.49;98502.22;5054906;28;20217;-61
2023/04/15 05:54:27;;;;;;;10.45;4.20;;;;;;;13.13;48.51;98512.88;5056521;28;20398;-61
2023/04/15 05:56:57;;;;;;;7.95;3.75;;;;;;;14.00;46.91;98512.31;5053504;28;20043;-59
2023/04/15 05:59:26;;;;;;;8.73;3.80;;;;;;;14.45;46.61;98526.47;5062934;28;20052;-60
2023/04/15 06:01:54;;;;;;;9.30;4.72;;;;;;;12.50;48.33;98532.13;5058295;28;20063;-60
2023/04/15 06:04:22;;;;;;;10.20;4.43;;;;;;;12.72;48.94;98531.81;5055102;28;20075;-60
2023/04/15 06:06:51;;;;;;;6.90;4.22;;;;;;;13.49;47.49;98534.22;5052278;28;20044;-59
2023/04/15 06:09:19;;;;;;;13.82;4.80;;;;;;;13.45;47.59;98531.28;5059705;28;20053;-59
2023/04/15 06:11:48;;;;;;;9.23;4.47;;;;;;;11.94;50.72;98535.69;5054953;28;20048;-59
2023/04/15 06:14:18;;;;;;;9.85;4.40;;;;;;;12.28;49.28;98541.31;5056890;28;20045;-59
2023/04/15 06:16:47;;;;;;;7.82;4.03;;;;;;;11.62;51.76;98547.41;5054959;28;20044;-60
2023/04/15 06:19:18;;;;;;;12.93;5.22;;;;;;;9.55;57.09;98547.50;5054533;28;20041;-59
2023/04/15 06:21:46;;;;;;;10.63;4.82;;;;;;;9.30;60.01;98553.38;5053759;28;20429;-59
2023/04/15 06:24:14;;;;;;;10.13;4.88;;;;;;;9.67;59.88;98553.50;5072991;28;20383;-59
2023/04/15 06:26:42;;;;;;;10.55;4.32;;;;;;;11.02;56.06;98546.97;5050457;28;20041;-59
2023/04/15 06:29:11;;;;;;;9.45;4.68;;;;;;;12.36;51.63;98560.66;5057399;28;20049;-61
2023/04/15 06:31:40;;;;;;;8.23;4.03;;;;;;;12.12;51.61;98558.50;5058493;28;20033;-59
2023/04/15 06:34:09;;;;;;;10.20;3.90;;;;;;;12.85;50.73;98565.41;5058536;28;20044;-59
2023/04/15 06:36:38;;;;;;;10.13;5.00;;;;;;;13.41;50.45;98567.91;5052738;28;20045;-59
2023/04/15 06:39:06;;;;;;;15.63;5.05;;;;;;;13.58;48.40;98562.97;5060541;28;20051;-59
2023/04/15 06:41:34;;;;;;;9.48;4.60;;;;;;;13.71;49.01;98566.13;5056958;28;20355;-59
2023/04/15 06:44:03;;;;;;;10.13;4.20;;;;;;;13.68;48.85;98563.97;5059342;28;20484;-59
2023/04/15 06:46:31;;;;;;;13.10;4.28;;;;;;;13.96;49.70;98571.34;5057248;28;20032;-59
2023/04/15 06:49:02;;;;;;;10.80;4.88;;;;;;;15.26;46.58;98578.75;5054056;28;20048;-59
2023/04/15 06:51:31;;;;;;;11.15;4.70;;;;;;;14.55;46.93;98574.94;5055883;28;20033;-59
2023/04/15 06:54:01;;;;;;;13.77;5.38;;;;;;;13.75;47.83;98578.78;5057359;28;20539;-59
2023/04/15 06:56:30;;;;;;;11.30;5.20;;;;;;;14.84;46.80;98572.22;5053148;28;20041;-59
2023/04/15 06:58:58;;;;;;;12.40;5.80;;;;;;;14.07;48.32;98573.97;5058230;28;20051;-59
2023/04/15 07:01:27;;;;;;;11.27;5.03;;;;;;;14.35;46.09;98567.81;5051653;28;20545;-59
2023/04/15 07:03:55;;;;;;;13.50;5.68;;;;;;;14.84;45.81;98577.59;5059065;28;20446;-59
2023/04/15 07:06:24;;;;;;;16.00;5.90;;;;;;;15.04;45.81;98575.78;5056687;28;20037;-59
2023/04/15 07:08:53;;;;;;;13.80;6.13;;;;;;;14.50;47.08;98572.25;5060408;28;20044;-60
2023/04/15 07:11:21;;;;;;;12.35;5.63;;;;;;;15.99;44.73;98571.28;5052011;28;20045;-59
2023/04/15 07:13:49;;;;;;;9.73;5.47;;;;;;;15.92;44.34;98570.88;5053606;28;20045;-59
2023/04/15 07:16:18;;;;;;;10.57;5.60;;;;;;;16.31;43.34;98567.00;5052217;28;20043;-59
2023/04/15 07:18:46;;;;;;;10.73;5.85;;;;;;;16.09;43.51;98571.13;5056089;28;20051;-60
2023/04/15 07:21:14;;;;;;;9.05;5.65;;;;;;;17.35;41.73;98567.53;5048485;28;20039;-60
2023/04/15 07:23:44;;;;;;;11.90;5.55;;;;;;;16.77;42.64;98566.19;5061470;28;20240;-59
2023/04/15 07:26:12;;;;;;;;;;;;;;;16.32;43.60;98571.31;5058451;28;20471;-60
2023/04/15 07:28:41;;;;;;;12.73;5.30;;;;;;;16.49;43.96;98574.25;5060195;28;20010;-60
2023/04/15 07:31:09;;;;;;;13.48;5.68;;;;;;;15.87;44.30;98566.34;5052022;28;20043;-59
2023/04/15 07:33:37;;;;;;;12.82;5.15;;;;;;;15.80;44.89;98573.19;5058377;28;20418;-59
2023/04/15 07:36:06;;;;;;;15.68;5.45;;;;;;;15.55;44.46;98583.25;5053087;28;20068;-60
2023/04/15 07:38:34;;;;;;;13.40;4.95;;;;;;;15.95;46.42;98578.41;5053117;28;20044;-59
2023/04/15 07:41:04;;;;;;;15.05;5.18;;;;;;;15.37;46.08;98582.13;5050360;28;20571;-59
2023/04/15 07:43:32;;;;;;;;;;;;;;;14.87;48.00;98593.22;5058983;28;20044;-60
2023/04/15 07:46:00;;;;;;;13.40;4.65;;;;;;;14.08;49.47;98597.13;5056576;28;19924;-59
2023/04/15 07:48:29;;;;;;;24.83;6.03;;;;;;;14.51;47.63;98600.03;5060616;28;20075;-59
2023/04/15 07:50:57;;;;;;;33.40;5.78;;;;;;;13.85;49.12;98594.03;5058483;28;20039;-59
2023/04/15 07:53:25;;;;;;;30.40;5.93;;;;;;;13.85;50.36;98598.63;5057712;28;20271;-61
2023/04/15 07:55:53;;;;;;;32.58;5.47;;;;;;;12.54;53.31;98603.09;5058563;28;20322;-59
2023/04/15 07:58:23;;;;;;;24.67;5.68;;;;;;;13.25;53.32;98601.31;5057927;28;20040;-60
2023/04/15 08:00:52;;;;;;;15.32;5.22;;;;;;;13.10;52.87;98603.00;5052705;28;20039;-60
2023/04/15 08:03:22;;;;;;;16.50;4.97;;;;;;;13.83;52.07;98601.63;5059809;28;20048;-60
2023/04/15 08:05:50;;;;;;;14.10;5.38;;;;;;;13.46;51.42;98602.88;5059506;28;20040;-60
2023/04/15 08:08:18;;;;;;;16.77;5.60;;;;;;;14.18;50.18;98611.34;5048199;28;20051;-60
2023/04/15 08:10:47;;;;;;;14.63;5.93;;;;;;;14.53;49.89;98609.47;5056813;28;20055;-60
2023/04/15 08:13:15;;;;;;;17.17;5.30;;;;;;;14.47;48.04;98610.56;5054574;28;20078;-60
2023/04/15 08:15:45;;;;;;;14.30;4.70;;;;;;;14.77;49.04;98608.72;5053419;28;20044;-60
2023/04/15 08:18:14;;;;;;;18.77;5.68;;;;;;;14.65;48.76;98609.91;5054142;28;20040;-60
2023/04/15 08:20:42;;;;;;;12.43;4.95;;;;;;;13.76;50.43;98614.59;5055395;28;20266;-60
2023/04/15 08:23:10;;;;;;;18.20;6.75;;;;;;;13.68;51.13;98615.16;5056905;28;20040;-60
2023/04/15 08:25:38;;;;;;;14.50;5.15;;;;;;;13.87;52.56;98618.00;5051076;28;20437;-61
2023/04/15 08:28:08;;;;;;;9.32;4.68;;;;;;;14.02;53.13;98624.09;5055172;28;20051;-60
2023/04/15 08:30:36;;;;;;;9.68;5.45;;;;;;;14.49;51.54;98624.56;5048623;28;20074;-61
2023/04/15 08:33:07;;;;;;;13.65;5.10;;;;;;;14.37;51.30;98624.94;5058464;28;20068;-61
2023/04/15 08:35:36;;;;;;;9.48;4.65;;;;;;;14.48;51.83;98627.53;5054389;28;20282;-61
2023/04/15 08:38:04;;;;;;;19.33;5.22;;;;;;;15.63;50.08;98630.44;5059642;28;20052;-60
2023/04/15 08:40:41;;;;;;;11.02;5.32;;;;;;;15.36;50.14;98625.63;5051254;28;20052;-60
2023/04/15 08:43:10;;;;;;;9.27;4.75;;;;;;;15.06;51.00;98632.97;5053471;28;20053;-61
2023/04/15 08:45:39;;;;;;;8.87;5.13;;;;;;;15.12;51.01;98633.72;5054269;28;20597;-60
2023/04/15 08:48:08;;;;;;;15.45;5.05;;;;;;;15.22;50.54;98631.69;5054908;28;20045;-60
2023/04/15 08:50:36;;;;;;;9.63;5.10;;;;;;;15.32;50.00;98625.38;5053180;28;20051;-59
2023/04/15 08:53:05;;;;;;;11.25;5.22;;;;;;;14.65;50.71;98630.66;5055769;28;20049;-60
2023/04/15 08:55:34;;;;;;;14.57;5.20;;;;;;;13.95;53.05;98630.88;5049568;28;20049;-59
2023/04/15 08:58:03;;;;;;;10.45;5.00;;;;;;;13.71;54.71;98630.78;5057545;28;20367;-60
2023/04/15 09:00:31;;;;;;;13.38;5.57;;;;;;;13.32;54.80;98628.78;5054509;28;20044;-60
2023/04/15 09:02:59;;;;;;;13.65;5.63;;;;;;;13.58;54.61;98638.38;5071959;28;20057;-60
2023/04/15 09:05:31;;;;;;;11.70;4.90;;;;;;;13.54;55.12;98631.91;5047346;28;20049;-58
2023/04/15 09:08:00;;;;;;;9.65;4.50;;;;;;;13.69;52.43;98639.13;5052524;28;20396;-61
2023/04/15 09:10:28;;;;;;;11.88;4.68;;;;;;;13.49;51.64;98634.63;5061466;28;20040;-61
2023/04/15 09:12:57;;;;;;;10.23;4.03;;;;;;;13.71;51.12;98631.56;5059020;28;20045;-61
2023/04/15 09:15:26;;;;;;;8.60;4.20;;;;;;;12.50;52.64;98642.34;5052217;28;20759;-61
2023/04/15 09:17:54;;;;;;;8.38;3.80;;;;;;;12.70;53.95;98641.53;5052371;28;20047;-59
2023/04/15 09:20:23;;;;;;;7.68;3.63;;;;;;;12.97;51.65;98649.28;5059228;28;20055;-59
2023/04/15 09:22:53;;;;;;;6.97;3.38;;;;;;;13.02;51.49;98653.84;5053987;28;20045;-60
2023/04/15 09:25:28;;;;;;;6.82;3.28;;;;;;;13.20;50.62;98652.47;5061618;28;20045;-59
2023/04/15 09:27:57;;;;;;;7.65;3.50;;;;;;;13.30;51.29;98641.69;5053798;28;20066;-60
2023/04/15 09:30:25;;;;;;;7.10;3.60;;;;;;;13.47;50.65;98658.31;5056049;28;20068;-60
2023/04/15 09:32:55;;;;;;;8.23;3.45;;;;;;;14.18;48.28;98664.44;5059501;28;20045;-60
2023/04/15 09:35:24;;;;;;;7.20;3.72;;;;;;;14.09;48.20;98658.03;5055609;28;20040;-60
2023/04/15 09:37:54;;;;;;;9.18;3.83;;;;;;;14.61;47.64;98662.78;5056952;28;20050;-60
2023/04/15 09:40:31;;;;;;;10.43;3.80;;;;;;;14.24;47.85;98666.81;5054572;28;20059;-60
2023/04/15 09:43:03;;;;;;;10.85;3.58;;;;;;;15.44;45.28;98666.28;5053517;28;20037;-60
2023/04/15 09:45:32;;;;;;;7.38;3.60;;;;;;;15.35;45.79;98678.00;5058515;28;20052;-60
2023/04/15 09:48:15;;;;;;;5.60;3.58;;;;;;;15.93;46.71;98677.88;5061575;28;20079;-60
2023/04/15 09:50:44;;;;;;;12.43;3.78;;;;;;;16.56;44.75;98676.69;5054470;28;20067;-60
2023/04/15 09:53:16;;;;;;;10.85;4.00;;;;;;;17.29;44.56;98677.88;5060878;28;20060;-60
2023/04/15 09:55:45;;;;;;;11.73;4.40;;;;;;;16.71;44.66;98678.34;5058577;28;21298;-60
2023/04/15 09:58:22;;;;;;;8.93;4.15;;;;;;;16.71;45.34;98671.03;5053005;28;20491;-60
2023/04/15 10:00:51;;;;;;;15.00;5.00;;;;;;;17.18;43.37;98673.75;5051110;28;20041;-60
2023/04/15 10:03:21;;;;;;;8.13;3.63;;;;;;;15.93;44.56;98675.19;5057490;28;20051;-59
2023/04/15 10:05:50;;;;;;;8.02;3.97;;;;;;;15.58;45.14;98677.22;5052679;28;20045;-60
2023/04/15 10:08:20;;;;;;;7.93;4.00;;;;;;;15.40;46.46;98670.66;5055708;28;20052;-60
2023/04/15 10:10:50;;;;;;;;;;;;;;;15.63;45.02;98670.94;5056691;28;20051;-60
2023/04/15 10:13:21;;;;;;;10.75;4.00;;;;;;;15.67;43.98;98675.44;5055081;28;19928;-60
2023/04/15 10:15:52;;;;;;;13.10;4.40;;;;;;;15.29;44.44;98679.97;5057425;28;20044;-60
2023/04/15 10:18:20;;;;;;;6.22;3.70;;;;;;;15.07;46.17;98677.75;5055838;28;20053;-60
2023/04/15 10:20:49;;;;;;;8.60;3.70;;;;;;;15.07;43.99;98680.44;5054070;28;20037;-60
2023/04/15 10:23:22;;;;;;;11.10;3.67;;;;;;;15.79;41.65;98683.19;5058904;28;20041;-59
2023/04/15 10:25:50;;;;;;;13.13;5.82;;;;;;;16.64;42.03;98680.63;5057192;28;20033;-59
2023/04/15 10:28:19;;;;;;;9.93;4.70;;;;;;;16.00;43.98;98693.72;5056053;28;20049;-60
2023/04/15 10:30:48;;;;;;;9.65;4.18;;;;;;;16.07;43.63;98684.16;5055001;28;20490;-60
2023/04/15 10:33:18;;;;;;;8.40;4.70;;;;;;;15.93;45.72;98694.09;5060902;28;20047;-59
2023/04/15 10:35:47;;;;;;;9.70;5.80;;;;;;;16.72;43.83;98688.03;5056361;28;20296;-60
2023/04/15 10:38:36;;;;;;;10.63;5.28;;;;;;;16.76;44.48;98694.50;5052456;28;20056;-60
2023/04/15 10:41:18;;;;;;;11.02;6.18;;;;;;;16.85;42.87;98695.47;5062179;28;20048;-61
2023/04/15 10:43:51;;;;;;;12.43;5.72;;;;;;;16.80;42.50;98695.53;5054918;28;20045;-61
2023/04/15 10:46:24;;;;;;;14.40;6.85;;;;;;;16.27;44.43;98701.19;5059101;28;20434;-60
2023/04/15 10:48:53;;;;;;;12.50;4.30;;;;;;;16.17;41.79;98700.25;5050503;28;20040;-59
2023/04/15 10:51:29;;;;;;;7.68;3.95;;;;;;;15.31;43.74;98713.69;5056412;28;20037;-59
2023/04/15 10:53:59;;;;;;;12.63;4.07;;;;;;;15.23;42.10;98706.22;5057686;28;20192;-59
2023/04/15 10:56:28;;;;;;;;;;;;;;;15.52;41.60;98700.78;5059571;28;20041;-59
2023/04/15 10:59:00;;;;;;;10.13;3.80;;;;;;;16.06;42.36;98698.78;5054514;28;19930;-59
2023/04/15 11:01:56;;;;;;;8.25;2.53;;;;;;;16.32;38.31;98698.41;5049965;28;20041;-59
2023/04/15 11:04:51;;;;;;;12.73;2.80;;;;;;;15.98;39.14;98706.75;5060465;28;20213;-59
2023/04/15 11:07:36;;;;;;;8.55;2.13;;;;;;;15.52;39.99;98714.28;5026547;28;20515;-60
2023/04/15 11:10:23;;;;;;;5.75;2.25;;;;;;;14.87;41.42;98703.81;5057217;28;20048;-59
2023/04/15 11:12:52;;;;;;;7.55;2.20;;;;;;;14.86;41.18;98704.94;5046227;28;20062;-61
2023/04/15 11:15:28;;;;;;;10.68;2.50;;;;;;;15.08;42.17;98706.38;5054592;28;20475;-61
2023/04/15 11:17:57;;;;;;;5.60;2.20;;;;;;;14.29;42.54;98711.78;5050629;28;20273;-60
2023/04/15 11:20:25;;;;;;;8.48;3.38;;;;;;;14.88;43.39;98718.16;5049880;28;20048;-59
2023/04/15 11:22:54;;;;;;;8.60;3.70;;;;;;;15.17;44.09;98725.44;5053784;28;20047;-60
2023/04/15 11:25:24;;;;;;;10.65;4.05;;;;;;;14.95;44.96;98728.59;5055257;28;20048;-60
2023/04/15 11:27:53;;;;;;;;;;;;;;;15.16;44.62;98724.63;5056442;28;20819;-60
2023/04/15 11:30:22;;;;;;;9.93;4.40;;;;;;;15.35;44.78;98727.44;5055882;28;19924;-60
2023/04/15 11:32:50;;;;;;;12.15;4.07;;;;;;;14.79;44.39;98731.44;5057954;28;20037;-59
2023/04/15 11:35:19;;;;;;;8.00;2.33;;;;;;;15.01;44.26;98732.88;5053864;28;20051;-60
2023/04/15 11:37:48;;;;;;;13.05;3.10;;;;;;;15.25;44.10;98741.00;5053464;28;20041;-60
2023/04/15 11:40:17;;;;;;;10.43;3.65;;;;;;;15.32;45.56;98736.91;5052730;28;20079;-60
2023/04/15 11:42:47;;;;;;;6.50;3.45;;;;;;;14.78;46.88;98751.41;5054953;28;20041;-60
2023/04/15 11:45:15;;;;;;;8.73;3.53;;;;;;;14.73;46.07;98751.44;5052727;28;20053;-60